sensor_id;sensor_type;location;lat;lon;timestamp;P1;durP1;ratioP1;P2;durP2;ratioP2
33421;SDS011;19763;55.798;37.782;2023-02-19T00:01:32;15.93;;;11.00;;
33421;SDS011;19763;55.798;37.782;2023-02-19T00:04:01;18.15;;;12.60;;
33421;SDS011;19763;55.798;37.782;2023-02-19T00:06:31;16.73;;;11.65;;
33421;SDS011;19763;55.798;37.782;2023-02-19T00:08:59;18.90;;;12.35;;
33421;SDS011;19763;55.798;37.782;2023-02-19T00:11:26;17.00;;;10.90;;
33421;SDS011;19763;55.798;37.782;2023-02-19T00:13:55;18.42;;;12.30;;
33421;SDS011;19763;55.798;37.782;2023-02-19T00:16:23;17.33;;;12.52;;
33421;SDS011;19763;55.798;37.782;2023-02-19T00:18:50;18.20;;;12.40;;
33421;SDS011;19763;55.798;37.782;2023-02-19T00:21:17;23.48;;;13.95;;
33421;SDS011;19763;55.798;37.782;2023-02-19T00:23:47;17.02;;;11.75;;
33421;SDS011;19763;55.798;37.782;2023-02-19T00:26:13;18.23;;;12.68;;
33421;SDS011;19763;55.798;37.782;2023-02-19T00:28:39;20.50;;;13.38;;
33421;SDS011;19763;55.798;37.782;2023-02-19T00:33:31;20.95;;;13.57;;
33421;SDS011;19763;55.798;37.782;2023-02-19T00:36:04;20.25;;;13.60;;
33421;SDS011;19763;55.798;37.782;2023-02-19T00:38:30;20.83;;;13.85;;
33421;SDS011;19763;55.798;37.782;2023-02-19T00:40:59;22.02;;;15.15;;
33421;SDS011;19763;55.798;37.782;2023-02-19T00:43:25;20.52;;;13.95;;
33421;SDS011;19763;55.798;37.782;2023-02-19T00:45:51;20.13;;;14.30;;
33421;SDS011;19763;55.798;37.782;2023-02-19T00:48:16;22.13;;;14.40;;
33421;SDS011;19763;55.798;37.782;2023-02-19T00:50:42;22.08;;;14.20;;
33421;SDS011;19763;55.798;37.782;2023-02-19T00:53:07;20.23;;;13.77;;
33421;SDS011;19763;55.798;37.782;2023-02-19T00:55:33;23.00;;;15.55;;
33421;SDS011;19763;55.798;37.782;2023-02-19T00:57:58;24.02;;;14.93;;
33421;SDS011;19763;55.798;37.782;2023-02-19T01:00:24;20.35;;;14.32;;
33421;SDS011;19763;55.798;37.782;2023-02-19T01:02:49;22.42;;;14.88;;
33421;SDS011;19763;55.798;37.782;2023-02-19T01:05:15;18.27;;;13.48;;
33421;SDS011;19763;55.798;37.782;2023-02-19T01:07:40;21.27;;;13.98;;
33421;SDS011;19763;55.798;37.782;2023-02-19T01:10:06;20.80;;;14.50;;
33421;SDS011;19763;55.798;37.782;2023-02-19T01:12:32;18.88;;;13.35;;
33421;SDS011;19763;55.798;37.782;2023-02-19T01:14:57;21.52;;;14.13;;
33421;SDS011;19763;55.798;37.782;2023-02-19T01:17:23;20.95;;;13.95;;
33421;SDS011;19763;55.798;37.782;2023-02-19T01:19:49;21.42;;;14.77;;
33421;SDS011;19763;55.798;37.782;2023-02-19T01:22:14;21.52;;;14.88;;
33421;SDS011;19763;55.798;37.782;2023-02-19T01:24:40;21.42;;;14.30;;
33421;SDS011;19763;55.798;37.782;2023-02-19T01:27:06;19.35;;;12.43;;
33421;SDS011;19763;55.798;37.782;2023-02-19T01:29:31;23.65;;;15.20;;
33421;SDS011;19763;55.798;37.782;2023-02-19T01:31:57;22.80;;;14.98;;
33421;SDS011;19763;55.798;37.782;2023-02-19T01:34:22;20.08;;;14.13;;
33421;SDS011;19763;55.798;37.782;2023-02-19T01:36:48;22.23;;;15.13;;
33421;SDS011;19763;55.798;37.782;2023-02-19T01:39:13;21.23;;;15.32;;
33421;SDS011;19763;55.798;37.782;2023-02-19T01:41:40;22.17;;;14.40;;
33421;SDS011;19763;55.798;37.782;2023-02-19T01:46:42;18.92;;;13.93;;
33421;SDS011;19763;55.798;37.782;2023-02-19T01:49:20;23.63;;;16.45;;
33421;SDS011;19763;55.798;37.782;2023-02-19T01:51:59;22.02;;;14.32;;
33421;SDS011;19763;55.798;37.782;2023-02-19T01:54:30;22.10;;;13.30;;
33421;SDS011;19763;55.798;37.782;2023-02-19T01:57:00;20.05;;;14.25;;
33421;SDS011;19763;55.798;37.782;2023-02-19T01:59:32;20.52;;;14.05;;
33421;SDS011;19763;55.798;37.782;2023-02-19T02:01:58;16.98;;;12.52;;
33421;SDS011;19763;55.798;37.782;2023-02-19T02:04:24;21.17;;;14.43;;
33421;SDS011;19763;55.798;37.782;2023-02-19T02:06:52;18.80;;;11.63;;
33421;SDS011;19763;55.798;37.782;2023-02-19T02:09:20;20.83;;;14.27;;
33421;SDS011;19763;55.798;37.782;2023-02-19T02:12:07;22.00;;;15.07;;
33421;SDS011;19763;55.798;37.782;2023-02-19T02:14:34;20.98;;;14.55;;
33421;SDS011;19763;55.798;37.782;2023-02-19T02:31:12;18.17;;;12.18;;
33421;SDS011;19763;55.798;37.782;2023-02-19T02:33:49;19.00;;;13.13;;
33421;SDS011;19763;55.798;37.782;2023-02-19T02:36:29;17.73;;;12.23;;
33421;SDS011;19763;55.798;37.782;2023-02-19T02:38:58;18.30;;;13.02;;
33421;SDS011;19763;55.798;37.782;2023-02-19T02:41:27;18.58;;;12.15;;
33421;SDS011;19763;55.798;37.782;2023-02-19T02:43:52;17.70;;;12.90;;
33421;SDS011;19763;55.798;37.782;2023-02-19T02:46:27;18.67;;;12.55;;
33421;SDS011;19763;55.798;37.782;2023-02-19T02:49:01;18.45;;;12.77;;
33421;SDS011;19763;55.798;37.782;2023-02-19T02:51:49;17.88;;;12.95;;
33421;SDS011;19763;55.798;37.782;2023-02-19T02:54:51;20.15;;;12.57;;
33421;SDS011;19763;55.798;37.782;2023-02-19T02:57:28;17.33;;;11.30;;
33421;SDS011;19763;55.798;37.782;2023-02-19T02:59:53;21.58;;;12.70;;
33421;SDS011;19763;55.798;37.782;2023-02-19T03:02:21;17.52;;;12.40;;
33421;SDS011;19763;55.798;37.782;2023-02-19T03:10:55;15.77;;;10.85;;
33421;SDS011;19763;55.798;37.782;2023-02-19T03:14:24;18.85;;;11.05;;
33421;SDS011;19763;55.798;37.782;2023-02-19T03:17:07;17.27;;;11.18;;
33421;SDS011;19763;55.798;37.782;2023-02-19T03:22:26;14.27;;;10.20;;
33421;SDS011;19763;55.798;37.782;2023-02-19T03:24:58;18.23;;;11.38;;
33421;SDS011;19763;55.798;37.782;2023-02-19T03:27:47;15.15;;;10.38;;
33421;SDS011;19763;55.798;37.782;2023-02-19T03:30:16;14.82;;;10.15;;
33421;SDS011;19763;55.798;37.782;2023-02-19T03:32:50;14.40;;;10.57;;
33421;SDS011;19763;55.798;37.782;2023-02-19T03:35:21;16.33;;;10.60;;
33421;SDS011;19763;55.798;37.782;2023-02-19T03:38:10;14.43;;;10.45;;
33421;SDS011;19763;55.798;37.782;2023-02-19T03:41:10;15.32;;;10.63;;
33421;SDS011;19763;55.798;37.782;2023-02-19T03:43:41;19.75;;;12.45;;
33421;SDS011;19763;55.798;37.782;2023-02-19T03:57:35;14.65;;;10.25;;
33421;SDS011;19763;55.798;37.782;2023-02-19T04:00:32;16.67;;;11.00;;
33421;SDS011;19763;55.798;37.782;2023-02-19T04:03:41;15.07;;;10.48;;
33421;SDS011;19763;55.798;37.782;2023-02-19T04:06:14;17.20;;;11.55;;
33421;SDS011;19763;55.798;37.782;2023-02-19T04:08:45;15.13;;;10.57;;
33421;SDS011;19763;55.798;37.782;2023-02-19T04:13:44;16.27;;;11.45;;
33421;SDS011;19763;55.798;37.782;2023-02-19T04:16:16;16.60;;;10.68;;
33421;SDS011;19763;55.798;37.782;2023-02-19T04:18:47;17.38;;;11.38;;
33421;SDS011;19763;55.798;37.782;2023-02-19T04:21:17;17.08;;;10.73;;
33421;SDS011;19763;55.798;37.782;2023-02-19T04:23:45;17.50;;;11.43;;
33421;SDS011;19763;55.798;37.782;2023-02-19T04:26:11;13.07;;;9.18;;
33421;SDS011;19763;55.798;37.782;2023-02-19T04:28:38;15.98;;;9.25;;
33421;SDS011;19763;55.798;37.782;2023-02-19T04:31:04;14.93;;;10.30;;
33421;SDS011;19763;55.798;37.782;2023-02-19T04:33:30;14.45;;;10.05;;
33421;SDS011;19763;55.798;37.782;2023-02-19T04:35:55;15.23;;;9.80;;
33421;SDS011;19763;55.798;37.782;2023-02-19T04:38:21;14.82;;;9.02;;
33421;SDS011;19763;55.798;37.782;2023-02-19T04:40:47;15.15;;;10.90;;
33421;SDS011;19763;55.798;37.782;2023-02-19T04:43:15;14.77;;;10.38;;
33421;SDS011;19763;55.798;37.782;2023-02-19T04:45:41;14.25;;;10.50;;
33421;SDS011;19763;55.798;37.782;2023-02-19T04:48:07;15.15;;;10.77;;
33421;SDS011;19763;55.798;37.782;2023-02-19T04:50:33;15.82;;;10.73;;
33421;SDS011;19763;55.798;37.782;2023-02-19T04:52:58;15.35;;;10.48;;
33421;SDS011;19763;55.798;37.782;2023-02-19T04:55:24;14.82;;;10.50;;
33421;SDS011;19763;55.798;37.782;2023-02-19T04:57:49;12.95;;;9.10;;
33421;SDS011;19763;55.798;37.782;2023-02-19T05:00:15;14.27;;;10.68;;
33421;SDS011;19763;55.798;37.782;2023-02-19T05:02:41;14.70;;;10.48;;
33421;SDS011;19763;55.798;37.782;2023-02-19T05:05:06;14.20;;;9.52;;
33421;SDS011;19763;55.798;37.782;2023-02-19T05:07:32;10.48;;;6.28;;
33421;SDS011;19763;55.798;37.782;2023-02-19T05:09:58;14.80;;;9.98;;
33421;SDS011;19763;55.798;37.782;2023-02-19T05:12:24;14.27;;;10.20;;
33421;SDS011;19763;55.798;37.782;2023-02-19T05:14:50;13.18;;;9.35;;
33421;SDS011;19763;55.798;37.782;2023-02-19T05:17:16;14.57;;;8.93;;
33421;SDS011;19763;55.798;37.782;2023-02-19T05:19:41;15.32;;;10.25;;
33421;SDS011;19763;55.798;37.782;2023-02-19T05:22:07;13.25;;;8.93;;
33421;SDS011;19763;55.798;37.782;2023-02-19T05:24:32;13.60;;;9.95;;
33421;SDS011;19763;55.798;37.782;2023-02-19T05:26:58;11.88;;;9.40;;
33421;SDS011;19763;55.798;37.782;2023-02-19T05:29:23;14.00;;;9.50;;
33421;SDS011;19763;55.798;37.782;2023-02-19T05:31:49;14.13;;;10.18;;
33421;SDS011;19763;55.798;37.782;2023-02-19T05:34:14;14.52;;;10.07;;
33421;SDS011;19763;55.798;37.782;2023-02-19T05:36:40;15.13;;;10.85;;
33421;SDS011;19763;55.798;37.782;2023-02-19T05:39:06;15.23;;;10.00;;
33421;SDS011;19763;55.798;37.782;2023-02-19T05:41:32;14.23;;;10.38;;
33421;SDS011;19763;55.798;37.782;2023-02-19T05:43:58;13.90;;;10.20;;
33421;SDS011;19763;55.798;37.782;2023-02-19T05:46:24;15.85;;;10.35;;
33421;SDS011;19763;55.798;37.782;2023-02-19T05:48:52;14.38;;;10.13;;
33421;SDS011;19763;55.798;37.782;2023-02-19T05:51:19;15.38;;;10.38;;
33421;SDS011;19763;55.798;37.782;2023-02-19T05:53:47;14.77;;;10.25;;
33421;SDS011;19763;55.798;37.782;2023-02-19T05:58:44;12.65;;;8.70;;
33421;SDS011;19763;55.798;37.782;2023-02-19T06:01:16;13.63;;;9.63;;
33421;SDS011;19763;55.798;37.782;2023-02-19T06:03:43;12.93;;;9.75;;
33421;SDS011;19763;55.798;37.782;2023-02-19T06:06:09;12.60;;;9.13;;
33421;SDS011;19763;55.798;37.782;2023-02-19T06:08:37;14.38;;;10.02;;
33421;SDS011;19763;55.798;37.782;2023-02-19T06:11:03;13.05;;;9.43;;
33421;SDS011;19763;55.798;37.782;2023-02-19T06:13:29;13.85;;;10.13;;
33421;SDS011;19763;55.798;37.782;2023-02-19T06:15:54;13.20;;;9.45;;
33421;SDS011;19763;55.798;37.782;2023-02-19T06:18:20;13.32;;;9.43;;
33421;SDS011;19763;55.798;37.782;2023-02-19T06:20:46;13.38;;;9.45;;
33421;SDS011;19763;55.798;37.782;2023-02-19T06:23:11;13.52;;;9.15;;
33421;SDS011;19763;55.798;37.782;2023-02-19T06:25:37;12.82;;;9.20;;
33421;SDS011;19763;55.798;37.782;2023-02-19T06:28:02;10.02;;;8.13;;
33421;SDS011;19763;55.798;37.782;2023-02-19T06:30:28;13.82;;;9.00;;
33421;SDS011;19763;55.798;37.782;2023-02-19T06:32:54;12.00;;;8.50;;
33421;SDS011;19763;55.798;37.782;2023-02-19T06:35:20;14.40;;;9.45;;
33421;SDS011;19763;55.798;37.782;2023-02-19T06:37:46;12.02;;;9.05;;
33421;SDS011;19763;55.798;37.782;2023-02-19T06:40:12;10.93;;;8.65;;
33421;SDS011;19763;55.798;37.782;2023-02-19T06:42:38;10.57;;;8.35;;
33421;SDS011;19763;55.798;37.782;2023-02-19T06:45:04;11.32;;;7.93;;
33421;SDS011;19763;55.798;37.782;2023-02-19T06:47:30;12.48;;;8.93;;
33421;SDS011;19763;55.798;37.782;2023-02-19T06:49:56;12.23;;;8.93;;
33421;SDS011;19763;55.798;37.782;2023-02-19T06:52:22;16.95;;;9.88;;
33421;SDS011;19763;55.798;37.782;2023-02-19T06:54:48;14.40;;;10.02;;
33421;SDS011;19763;55.798;37.782;2023-02-19T06:57:13;12.93;;;9.82;;
33421;SDS011;19763;55.798;37.782;2023-02-19T06:59:39;13.20;;;7.55;;
33421;SDS011;19763;55.798;37.782;2023-02-19T07:02:04;13.05;;;9.60;;
33421;SDS011;19763;55.798;37.782;2023-02-19T07:04:30;14.88;;;9.85;;
33421;SDS011;19763;55.798;37.782;2023-02-19T07:06:55;15.63;;;10.98;;
33421;SDS011;19763;55.798;37.782;2023-02-19T07:09:21;15.45;;;9.52;;
33421;SDS011;19763;55.798;37.782;2023-02-19T07:11:49;13.50;;;10.00;;
33421;SDS011;19763;55.798;37.782;2023-02-19T07:14:15;13.85;;;9.65;;
33421;SDS011;19763;55.798;37.782;2023-02-19T07:16:41;14.60;;;9.85;;
33421;SDS011;19763;55.798;37.782;2023-02-19T07:19:08;12.35;;;9.60;;
33421;SDS011;19763;55.798;37.782;2023-02-19T07:21:35;13.98;;;10.05;;
33421;SDS011;19763;55.798;37.782;2023-02-19T07:24:02;15.70;;;11.05;;
33421;SDS011;19763;55.798;37.782;2023-02-19T07:26:29;14.80;;;10.20;;
33421;SDS011;19763;55.798;37.782;2023-02-19T07:28:55;14.27;;;10.30;;
33421;SDS011;19763;55.798;37.782;2023-02-19T07:31:21;16.15;;;11.00;;
33421;SDS011;19763;55.798;37.782;2023-02-19T07:33:48;14.60;;;10.63;;
33421;SDS011;19763;55.798;37.782;2023-02-19T07:36:14;15.18;;;9.63;;
33421;SDS011;19763;55.798;37.782;2023-02-19T07:38:42;13.75;;;9.05;;
33421;SDS011;19763;55.798;37.782;2023-02-19T07:41:08;13.85;;;10.02;;
33421;SDS011;19763;55.798;37.782;2023-02-19T07:43:35;13.30;;;9.57;;
33421;SDS011;19763;55.798;37.782;2023-02-19T07:46:02;13.50;;;9.45;;
33421;SDS011;19763;55.798;37.782;2023-02-19T07:48:35;14.02;;;9.98;;
33421;SDS011;19763;55.798;37.782;2023-02-19T07:51:02;14.48;;;10.52;;
33421;SDS011;19763;55.798;37.782;2023-02-19T07:53:30;13.43;;;9.30;;
33421;SDS011;19763;55.798;37.782;2023-02-19T07:56:01;12.45;;;9.10;;
33421;SDS011;19763;55.798;37.782;2023-02-19T07:58:29;14.45;;;9.93;;
33421;SDS011;19763;55.798;37.782;2023-02-19T08:00:55;13.98;;;9.93;;
33421;SDS011;19763;55.798;37.782;2023-02-19T08:03:20;15.73;;;10.25;;
33421;SDS011;19763;55.798;37.782;2023-02-19T08:05:46;13.57;;;9.82;;
33421;SDS011;19763;55.798;37.782;2023-02-19T08:08:14;13.40;;;10.05;;
33421;SDS011;19763;55.798;37.782;2023-02-19T08:10:40;14.60;;;10.65;;
33421;SDS011;19763;55.798;37.782;2023-02-19T08:13:25;15.80;;;10.50;;
33421;SDS011;19763;55.798;37.782;2023-02-19T08:18:31;16.90;;;11.48;;
33421;SDS011;19763;55.798;37.782;2023-02-19T08:20:57;15.93;;;10.48;;
33421;SDS011;19763;55.798;37.782;2023-02-19T08:23:24;14.63;;;10.13;;
33421;SDS011;19763;55.798;37.782;2023-02-19T08:25:51;13.63;;;10.30;;
33421;SDS011;19763;55.798;37.782;2023-02-19T08:28:18;13.55;;;9.70;;
33421;SDS011;19763;55.798;37.782;2023-02-19T08:30:44;15.27;;;10.98;;
33421;SDS011;19763;55.798;37.782;2023-02-19T08:33:12;14.95;;;10.32;;
33421;SDS011;19763;55.798;37.782;2023-02-19T08:35:39;15.50;;;11.50;;
33421;SDS011;19763;55.798;37.782;2023-02-19T08:38:06;15.88;;;11.45;;
33421;SDS011;19763;55.798;37.782;2023-02-19T08:40:32;16.08;;;10.82;;
33421;SDS011;19763;55.798;37.782;2023-02-19T08:43:01;16.33;;;9.82;;
33421;SDS011;19763;55.798;37.782;2023-02-19T08:45:31;15.45;;;10.52;;
33421;SDS011;19763;55.798;37.782;2023-02-19T08:47:57;14.93;;;10.40;;
33421;SDS011;19763;55.798;37.782;2023-02-19T08:50:24;14.82;;;10.32;;
33421;SDS011;19763;55.798;37.782;2023-02-19T08:52:50;13.50;;;10.65;;
33421;SDS011;19763;55.798;37.782;2023-02-19T08:55:15;13.07;;;9.70;;
33421;SDS011;19763;55.798;37.782;2023-02-19T08:57:41;15.00;;;10.80;;
33421;SDS011;19763;55.798;37.782;2023-02-19T09:00:07;16.00;;;10.88;;
33421;SDS011;19763;55.798;37.782;2023-02-19T09:02:34;16.05;;;11.15;;
33421;SDS011;19763;55.798;37.782;2023-02-19T09:05:00;16.75;;;11.45;;
33421;SDS011;19763;55.798;37.782;2023-02-19T09:07:26;14.65;;;10.50;;
33421;SDS011;19763;55.798;37.782;2023-02-19T09:09:52;14.07;;;10.95;;
33421;SDS011;19763;55.798;37.782;2023-02-19T09:12:18;16.05;;;11.15;;
33421;SDS011;19763;55.798;37.782;2023-02-19T09:14:43;16.42;;;11.88;;
33421;SDS011;19763;55.798;37.782;2023-02-19T09:17:09;15.52;;;11.73;;
33421;SDS011;19763;55.798;37.782;2023-02-19T09:19:35;15.98;;;11.32;;
33421;SDS011;19763;55.798;37.782;2023-02-19T09:22:02;15.43;;;11.13;;
33421;SDS011;19763;55.798;37.782;2023-02-19T09:24:28;16.77;;;13.05;;
33421;SDS011;19763;55.798;37.782;2023-02-19T09:26:54;15.85;;;11.10;;
33421;SDS011;19763;55.798;37.782;2023-02-19T09:29:23;14.73;;;11.15;;
33421;SDS011;19763;55.798;37.782;2023-02-19T09:31:50;15.02;;;11.10;;
33421;SDS011;19763;55.798;37.782;2023-02-19T09:34:20;17.52;;;11.50;;
33421;SDS011;19763;55.798;37.782;2023-02-19T09:36:47;15.52;;;11.32;;
33421;SDS011;19763;55.798;37.782;2023-02-19T09:39:13;14.05;;;10.40;;
33421;SDS011;19763;55.798;37.782;2023-02-19T09:41:43;14.82;;;10.85;;
33421;SDS011;19763;55.798;37.782;2023-02-19T09:44:33;16.73;;;11.65;;
33421;SDS011;19763;55.798;37.782;2023-02-19T09:47:00;18.60;;;12.80;;
33421;SDS011;19763;55.798;37.782;2023-02-19T09:53:03;16.73;;;11.73;;
33421;SDS011;19763;55.798;37.782;2023-02-19T09:55:02;15.15;;;10.75;;
33421;SDS011;19763;55.798;37.782;2023-02-19T09:57:37;13.43;;;10.35;;
33421;SDS011;19763;55.798;37.782;2023-02-19T10:00:06;18.63;;;11.40;;
33421;SDS011;19763;55.798;37.782;2023-02-19T10:02:46;15.75;;;11.20;;
33421;SDS011;19763;55.798;37.782;2023-02-19T10:05:16;17.65;;;11.90;;
33421;SDS011;19763;55.798;37.782;2023-02-19T10:07:45;17.55;;;12.43;;
33421;SDS011;19763;55.798;37.782;2023-02-19T10:12:45;17.20;;;12.60;;
33421;SDS011;19763;55.798;37.782;2023-02-19T10:18:10;17.77;;;12.35;;
33421;SDS011;19763;55.798;37.782;2023-02-19T10:20:36;19.92;;;12.57;;
33421;SDS011;19763;55.798;37.782;2023-02-19T10:23:03;15.73;;;10.50;;
33421;SDS011;19763;55.798;37.782;2023-02-19T10:25:31;18.38;;;11.88;;
33421;SDS011;19763;55.798;37.782;2023-02-19T10:27:58;17.08;;;12.40;;
33421;SDS011;19763;55.798;37.782;2023-02-19T10:30:27;20.45;;;12.38;;
33421;SDS011;19763;55.798;37.782;2023-02-19T10:33:03;18.50;;;12.65;;
33421;SDS011;19763;55.798;37.782;2023-02-19T10:35:36;17.27;;;11.38;;
33421;SDS011;19763;55.798;37.782;2023-02-19T10:38:16;18.75;;;11.75;;
33421;SDS011;19763;55.798;37.782;2023-02-19T10:40:44;16.02;;;12.00;;
33421;SDS011;19763;55.798;37.782;2023-02-19T10:43:18;18.13;;;10.65;;
33421;SDS011;19763;55.798;37.782;2023-02-19T10:45:47;15.90;;;11.63;;
33421;SDS011;19763;55.798;37.782;2023-02-19T10:48:22;18.85;;;10.40;;
33421;SDS011;19763;55.798;37.782;2023-02-19T10:50:56;17.42;;;11.73;;
33421;SDS011;19763;55.798;37.782;2023-02-19T10:53:45;18.35;;;11.95;;
33421;SDS011;19763;55.798;37.782;2023-02-19T10:56:22;16.48;;;11.90;;
33421;SDS011;19763;55.798;37.782;2023-02-19T10:58:49;16.92;;;11.80;;
33421;SDS011;19763;55.798;37.782;2023-02-19T11:01:16;16.48;;;10.43;;
33421;SDS011;19763;55.798;37.782;2023-02-19T11:03:50;17.73;;;11.98;;
33421;SDS011;19763;55.798;37.782;2023-02-19T11:06:39;17.77;;;11.82;;
33421;SDS011;19763;55.798;37.782;2023-02-19T11:09:05;17.63;;;11.45;;
33421;SDS011;19763;55.798;37.782;2023-02-19T11:11:48;14.93;;;11.63;;
33421;SDS011;19763;55.798;37.782;2023-02-19T11:16:44;19.58;;;12.55;;
33421;SDS011;19763;55.798;37.782;2023-02-19T11:19:26;20.08;;;13.45;;
33421;SDS011;19763;55.798;37.782;2023-02-19T11:21:55;15.18;;;11.30;;
33421;SDS011;19763;55.798;37.782;2023-02-19T11:24:24;18.08;;;11.70;;
33421;SDS011;19763;55.798;37.782;2023-02-19T11:26:55;14.88;;;10.45;;
33421;SDS011;19763;55.798;37.782;2023-02-19T11:29:23;18.10;;;12.05;;
33421;SDS011;19763;55.798;37.782;2023-02-19T11:31:52;18.15;;;12.45;;
33421;SDS011;19763;55.798;37.782;2023-02-19T11:36:53;17.80;;;12.93;;
33421;SDS011;19763;55.798;37.782;2023-02-19T11:39:40;18.63;;;12.60;;
33421;SDS011;19763;55.798;37.782;2023-02-19T11:50:50;17.35;;;12.25;;
33421;SDS011;19763;55.798;37.782;2023-02-19T11:59:21;18.75;;;12.70;;
33421;SDS011;19763;55.798;37.782;2023-02-19T12:12:31;20.00;;;13.30;;
33421;SDS011;19763;55.798;37.782;2023-02-19T12:20:51;17.73;;;13.35;;
33421;SDS011;19763;55.798;37.782;2023-02-19T12:23:44;18.33;;;12.48;;
33421;SDS011;19763;55.798;37.782;2023-02-19T12:26:29;21.55;;;13.55;;
33421;SDS011;19763;55.798;37.782;2023-02-19T12:29:09;19.42;;;13.05;;
33421;SDS011;19763;55.798;37.782;2023-02-19T12:34:46;19.23;;;11.68;;
33421;SDS011;19763;55.798;37.782;2023-02-19T12:37:49;21.25;;;13.98;;
33421;SDS011;19763;55.798;37.782;2023-02-19T12:45:53;20.52;;;13.98;;
33421;SDS011;19763;55.798;37.782;2023-02-19T12:48:29;19.02;;;14.13;;
33421;SDS011;19763;55.798;37.782;2023-02-19T12:51:09;21.10;;;14.75;;
33421;SDS011;19763;55.798;37.782;2023-02-19T12:53:47;18.23;;;12.75;;
33421;SDS011;19763;55.798;37.782;2023-02-19T12:56:18;19.27;;;12.75;;
33421;SDS011;19763;55.798;37.782;2023-02-19T12:58:59;19.77;;;12.77;;
33421;SDS011;19763;55.798;37.782;2023-02-19T13:01:29;17.60;;;12.43;;
33421;SDS011;19763;55.798;37.782;2023-02-19T13:04:16;18.80;;;12.10;;
33421;SDS011;19763;55.798;37.782;2023-02-19T13:07:00;22.65;;;12.73;;
33421;SDS011;19763;55.798;37.782;2023-02-19T13:09:38;18.25;;;12.73;;
33421;SDS011;19763;55.798;37.782;2023-02-19T13:12:12;17.85;;;12.45;;
33421;SDS011;19763;55.798;37.782;2023-02-19T13:14:45;18.65;;;13.52;;
33421;SDS011;19763;55.798;37.782;2023-02-19T13:22:59;18.83;;;12.88;;
33421;SDS011;19763;55.798;37.782;2023-02-19T13:36:50;20.20;;;13.25;;
33421;SDS011;19763;55.798;37.782;2023-02-19T13:39:17;18.20;;;13.02;;
33421;SDS011;19763;55.798;37.782;2023-02-19T13:41:49;20.08;;;13.73;;
33421;SDS011;19763;55.798;37.782;2023-02-19T13:46:45;16.42;;;11.93;;
33421;SDS011;19763;55.798;37.782;2023-02-19T13:51:53;18.92;;;14.02;;
33421;SDS011;19763;55.798;37.782;2023-02-19T13:56:48;22.70;;;14.23;;
33421;SDS011;19763;55.798;37.782;2023-02-19T13:59:34;21.50;;;14.45;;
33421;SDS011;19763;55.798;37.782;2023-02-19T14:14:43;18.50;;;14.38;;
33421;SDS011;19763;55.798;37.782;2023-02-19T14:20:38;20.42;;;14.63;;
33421;SDS011;19763;55.798;37.782;2023-02-19T14:23:07;20.02;;;15.13;;
33421;SDS011;19763;55.798;37.782;2023-02-19T14:33:51;23.17;;;15.05;;
33421;SDS011;19763;55.798;37.782;2023-02-19T14:38:57;23.42;;;15.35;;
33421;SDS011;19763;55.798;37.782;2023-02-19T14:41:29;20.60;;;14.02;;
33421;SDS011;19763;55.798;37.782;2023-02-19T14:43:57;23.08;;;15.70;;
33421;SDS011;19763;55.798;37.782;2023-02-19T14:46:31;23.50;;;14.80;;
33421;SDS011;19763;55.798;37.782;2023-02-19T14:49:44;23.05;;;14.40;;
33421;SDS011;19763;55.798;37.782;2023-02-19T14:51:55;20.52;;;14.15;;
33421;SDS011;19763;55.798;37.782;2023-02-19T14:54:40;22.00;;;14.70;;
33421;SDS011;19763;55.798;37.782;2023-02-19T14:57:19;20.52;;;14.55;;
33421;SDS011;19763;55.798;37.782;2023-02-19T14:59:53;22.10;;;14.27;;
33421;SDS011;19763;55.798;37.782;2023-02-19T15:02:23;23.52;;;15.30;;
33421;SDS011;19763;55.798;37.782;2023-02-19T15:04:52;21.10;;;14.23;;
33421;SDS011;19763;55.798;37.782;2023-02-19T15:07:27;23.30;;;15.38;;
33421;SDS011;19763;55.798;37.782;2023-02-19T15:09:57;23.15;;;15.60;;
33421;SDS011;19763;55.798;37.782;2023-02-19T15:12:32;19.20;;;13.75;;
33421;SDS011;19763;55.798;37.782;2023-02-19T15:15:03;22.92;;;15.73;;
33421;SDS011;19763;55.798;37.782;2023-02-19T15:17:30;23.58;;;15.35;;
33421;SDS011;19763;55.798;37.782;2023-02-19T15:19:59;21.38;;;15.13;;
33421;SDS011;19763;55.798;37.782;2023-02-19T15:22:29;22.88;;;14.15;;
33421;SDS011;19763;55.798;37.782;2023-02-19T15:25:03;24.73;;;15.23;;
33421;SDS011;19763;55.798;37.782;2023-02-19T15:27:30;23.08;;;14.35;;
33421;SDS011;19763;55.798;37.782;2023-02-19T15:29:57;22.48;;;14.77;;
33421;SDS011;19763;55.798;37.782;2023-02-19T15:32:24;24.65;;;14.63;;
33421;SDS011;19763;55.798;37.782;2023-02-19T15:34:55;25.13;;;15.07;;
33421;SDS011;19763;55.798;37.782;2023-02-19T15:37:26;22.00;;;14.75;;
33421;SDS011;19763;55.798;37.782;2023-02-19T15:39:58;22.60;;;14.77;;
33421;SDS011;19763;55.798;37.782;2023-02-19T15:42:28;27.98;;;15.98;;
33421;SDS011;19763;55.798;37.782;2023-02-19T15:45:04;22.95;;;15.05;;
33421;SDS011;19763;55.798;37.782;2023-02-19T15:50:29;21.42;;;13.50;;
33421;SDS011;19763;55.798;37.782;2023-02-19T15:55:39;22.40;;;14.88;;
33421;SDS011;19763;55.798;37.782;2023-02-19T15:58:29;21.55;;;14.30;;
33421;SDS011;19763;55.798;37.782;2023-02-19T16:01:05;22.48;;;15.10;;
33421;SDS011;19763;55.798;37.782;2023-02-19T16:03:37;22.95;;;14.70;;
33421;SDS011;19763;55.798;37.782;2023-02-19T16:08:37;25.58;;;16.15;;
33421;SDS011;19763;55.798;37.782;2023-02-19T16:11:05;23.75;;;15.65;;
33421;SDS011;19763;55.798;37.782;2023-02-19T16:13:51;22.45;;;15.63;;
33421;SDS011;19763;55.798;37.782;2023-02-19T16:16:37;23.27;;;15.93;;
33421;SDS011;19763;55.798;37.782;2023-02-19T16:19:06;24.13;;;15.60;;
33421;SDS011;19763;55.798;37.782;2023-02-19T16:21:34;22.33;;;14.88;;
33421;SDS011;19763;55.798;37.782;2023-02-19T16:24:04;20.77;;;12.73;;
33421;SDS011;19763;55.798;37.782;2023-02-19T16:26:50;21.70;;;13.98;;
33421;SDS011;19763;55.798;37.782;2023-02-19T16:31:50;21.88;;;15.20;;
33421;SDS011;19763;55.798;37.782;2023-02-19T16:45:14;22.45;;;14.55;;
33421;SDS011;19763;55.798;37.782;2023-02-19T16:47:40;22.30;;;14.73;;
33421;SDS011;19763;55.798;37.782;2023-02-19T16:53:02;23.17;;;16.15;;
33421;SDS011;19763;55.798;37.782;2023-02-19T16:55:28;25.40;;;16.10;;
33421;SDS011;19763;55.798;37.782;2023-02-19T16:57:56;22.35;;;15.52;;
33421;SDS011;19763;55.798;37.782;2023-02-19T17:00:23;26.90;;;16.73;;
33421;SDS011;19763;55.798;37.782;2023-02-19T17:02:51;24.98;;;16.80;;
33421;SDS011;19763;55.798;37.782;2023-02-19T17:05:20;25.58;;;17.00;;
33421;SDS011;19763;55.798;37.782;2023-02-19T17:07:47;28.30;;;17.08;;
33421;SDS011;19763;55.798;37.782;2023-02-19T17:10:17;25.77;;;17.30;;
33421;SDS011;19763;55.798;37.782;2023-02-19T17:12:49;24.95;;;17.08;;
33421;SDS011;19763;55.798;37.782;2023-02-19T17:15:15;23.88;;;15.32;;
33421;SDS011;19763;55.798;37.782;2023-02-19T17:17:40;24.77;;;16.38;;
33421;SDS011;19763;55.798;37.782;2023-02-19T17:22:41;27.25;;;17.02;;
33421;SDS011;19763;55.798;37.782;2023-02-19T17:25:06;24.77;;;17.00;;
33421;SDS011;19763;55.798;37.782;2023-02-19T17:27:32;29.42;;;16.85;;